createdAt,value
2023-01-17T00:02:06.941Z,13.20
2023-01-17T00:04:52.670Z,11.40
2023-01-17T00:07:39.508Z,11.90
2023-01-17T00:10:17.694Z,15.10
2023-01-17T00:12:53.258Z,13.80
2023-01-17T00:15:20.638Z,13.60
2023-01-17T00:17:47.822Z,15.30
2023-01-17T00:20:37.781Z,13.30
2023-01-17T00:23:27.530Z,13.90
2023-01-17T00:26:03.478Z,12.70
2023-01-17T00:28:32.246Z,12.40
2023-01-17T00:30:59.139Z,12.70
2023-01-17T00:33:26.137Z,14.20
2023-01-17T00:35:53.319Z,12.10
2023-01-17T00:38:21.929Z,12.00
2023-01-17T00:40:48.987Z,15.00
2023-01-17T00:43:37.714Z,13.90
2023-01-17T00:46:23.416Z,11.50
2023-01-17T00:49:09.089Z,10.20
2023-01-17T00:51:55.307Z,12.50
2023-01-17T00:54:40.820Z,13.30
2023-01-17T00:57:26.430Z,13.70
2023-01-17T01:00:12.067Z,11.60
2023-01-17T01:02:57.727Z,11.60
2023-01-17T01:05:43.483Z,12.70
2023-01-17T01:08:42.967Z,14.00
2023-01-17T01:11:33.049Z,12.90
2023-01-17T01:14:18.677Z,13.80
2023-01-17T01:17:04.358Z,12.80
2023-01-17T01:19:50.154Z,12.60
2023-01-17T01:22:35.871Z,13.90
2023-01-17T01:25:21.930Z,13.10
2023-01-17T01:28:07.732Z,13.30
2023-01-17T01:30:53.365Z,16.70
2023-01-17T01:33:20.387Z,14.90
2023-01-17T01:35:51.628Z,13.10
2023-01-17T01:38:19.407Z,13.70
2023-01-17T01:40:48.199Z,13.30
2023-01-17T01:43:16.481Z,13.50
2023-01-17T01:45:46.219Z,14.10
2023-01-17T01:48:33.892Z,13.60
2023-01-17T01:51:03.222Z,14.90
2023-01-17T01:53:30.313Z,12.80
2023-01-17T01:55:57.351Z,12.50
2023-01-17T01:58:25.731Z,14.90
2023-01-17T02:00:52.742Z,15.40
2023-01-17T06:00:53.687Z,25.90
2023-01-17T06:03:20.824Z,25.50
2023-01-17T06:05:47.832Z,24.40
2023-01-17T06:08:14.902Z,28.80
2023-01-17T06:10:41.953Z,24.30
2023-01-17T06:13:12.578Z,23.40
2023-01-17T06:15:39.845Z,24.00
2023-01-17T06:18:14.292Z,26.40
2023-01-17T06:20:41.627Z,23.20
2023-01-17T08:01:44.713Z,20.50
2023-01-17T08:04:12.090Z,24.90
2023-01-17T08:06:39.595Z,27.00
2023-01-17T08:09:06.620Z,26.20
2023-01-17T08:11:33.569Z,28.30
2023-01-17T08:14:00.644Z,24.40
2023-01-17T08:16:28.950Z,26.70
2023-01-17T08:18:56.580Z,27.40
2023-01-17T08:21:24.780Z,25.00
2023-01-17T08:23:51.974Z,26.60
2023-01-17T08:26:22.878Z,27.50
2023-01-17T08:29:02.585Z,27.70
2023-01-17T08:31:34.584Z,26.40
2023-01-17T08:36:29.162Z,28.40
2023-01-17T08:38:56.220Z,24.00
2023-01-17T08:41:23.796Z,26.80
2023-01-17T08:43:51.560Z,26.10
2023-01-17T08:46:18.806Z,24.80
2023-01-17T08:48:46.048Z,23.80
2023-01-17T08:51:13.105Z,26.30
2023-01-17T08:53:40.966Z,25.80
2023-01-17T08:56:08.331Z,24.90
2023-01-17T08:58:36.095Z,26.60
2023-01-17T09:01:04.979Z,30.80
2023-01-17T09:03:32.957Z,28.40
2023-01-17T09:06:03.992Z,25.10
2023-01-17T09:08:31.692Z,26.80
2023-01-17T09:10:58.811Z,27.20
2023-01-17T09:13:25.866Z,28.70
2023-01-17T09:15:56.844Z,31.10
2023-01-17T09:18:24.967Z,25.50
2023-01-17T09:20:55.412Z,24.50
2023-01-17T09:23:24.724Z,26.50
2023-01-17T09:25:58.598Z,27.00
2023-01-17T09:28:28.711Z,26.30
2023-01-17T09:30:55.738Z,27.60
2023-01-17T09:33:25.627Z,30.40
2023-01-17T09:35:52.575Z,28.80
2023-01-17T09:38:21.908Z,28.30
2023-01-17T09:40:49.020Z,27.00
2023-01-17T09:43:23.502Z,28.90
2023-01-17T09:45:50.541Z,26.50
2023-01-17T09:48:23.249Z,27.10
2023-01-17T09:50:57.298Z,23.80
2023-01-17T09:53:24.257Z,27.40
2023-01-17T09:56:03.416Z,26.20
2023-01-17T16:18:30.729Z,33.60
2023-01-17T16:21:01.958Z,35.20
2023-01-17T16:23:29.028Z,35.20
2023-01-17T16:25:56.028Z,33.50
2023-01-17T16:28:23.324Z,29.00
2023-01-17T16:30:50.343Z,35.60
2023-01-17T16:33:17.399Z,33.80
2023-01-17T16:35:44.391Z,33.30
2023-01-17T16:38:12.863Z,33.10
2023-01-17T16:40:44.582Z,32.50
2023-01-17T16:43:12.355Z,30.70
2023-01-17T16:45:41.168Z,34.00
2023-01-17T16:48:08.318Z,32.60
2023-01-17T16:50:35.309Z,30.60
2023-01-17T16:53:02.377Z,31.60
2023-01-17T16:55:29.345Z,33.10
2023-01-17T16:57:57.176Z,36.00
2023-01-17T17:00:24.204Z,31.30
2023-01-17T17:02:51.692Z,31.10
2023-01-17T17:05:19.094Z,33.50
2023-01-17T17:07:50.846Z,31.90
2023-01-17T17:10:19.997Z,30.00
2023-01-17T17:12:47.030Z,32.00
2023-01-17T17:15:14.127Z,30.00
2023-01-17T17:17:42.387Z,33.80
2023-01-17T17:20:14.309Z,30.50
2023-01-17T17:22:43.855Z,31.20
2023-01-17T17:25:12.234Z,33.30
2023-01-17T17:27:39.290Z,33.00
2023-01-17T17:30:07.300Z,34.90
2023-01-17T17:32:34.306Z,29.00
2023-01-17T17:35:01.354Z,35.20
2023-01-17T17:37:31.503Z,33.20
2023-01-17T17:39:58.528Z,32.20
2023-01-17T17:42:25.783Z,35.40
2023-01-17T17:44:52.882Z,35.70
2023-01-17T17:47:19.983Z,33.50
2023-01-17T17:49:46.961Z,33.30
2023-01-17T17:52:15.329Z,35.90
2023-01-17T17:54:42.300Z,33.40
2023-01-17T17:57:09.721Z,33.70
2023-01-17T17:59:36.796Z,35.70
2023-01-17T21:20:08.256Z,31.20
2023-01-17T21:22:35.519Z,35.40
2023-01-17T21:25:02.600Z,32.20
2023-01-17T21:27:29.812Z,32.90
2023-01-17T21:29:57.380Z,30.60
2023-01-17T21:32:25.012Z,25.50
2023-01-17T21:34:52.579Z,26.30
2023-01-17T21:37:19.698Z,27.00
2023-01-17T21:39:51.583Z,28.00
2023-01-17T21:42:18.573Z,25.10
2023-01-17T21:44:45.669Z,25.70
2023-01-17T21:47:12.714Z,26.10
2023-01-17T21:49:39.973Z,24.30
2023-01-17T21:52:07.016Z,23.70
2023-01-17T21:54:53.211Z,26.00
2023-01-17T21:57:39.978Z,25.40
2023-01-17T22:00:09.747Z,28.10
2023-01-17T22:02:42.265Z,29.50
2023-01-17T22:05:09.858Z,29.00
2023-01-17T22:07:39.118Z,27.20
2023-01-17T22:10:06.858Z,26.80
2023-01-17T22:12:33.878Z,29.40
2023-01-17T22:15:00.851Z,25.80
2023-01-17T22:17:29.588Z,27.40
2023-01-17T22:19:56.611Z,29.70
2023-01-17T22:22:23.807Z,28.50
2023-01-17T22:24:51.020Z,26.80
2023-01-17T22:27:21.114Z,26.60
2023-01-17T22:29:48.168Z,24.80
2023-01-17T22:32:15.140Z,26.90
2023-01-17T22:34:43.297Z,32.80
2023-01-17T22:37:10.351Z,27.70
2023-01-17T22:39:39.061Z,28.40
2023-01-17T22:42:06.367Z,28.40
2023-01-17T22:44:33.592Z,28.00
2023-01-17T22:47:00.678Z,25.00
2023-01-17T22:49:28.036Z,27.80
2023-01-17T22:51:55.085Z,29.00
2023-01-17T22:54:23.564Z,29.20
2023-01-17T22:56:50.552Z,29.80
2023-01-17T22:59:17.582Z,27.90
2023-01-17T23:01:44.616Z,31.80
2023-01-17T23:04:16.280Z,28.00
2023-01-17T23:06:43.629Z,28.80
2023-01-17T23:09:14.284Z,30.60
2023-01-17T23:11:43.433Z,26.50
2023-01-17T23:14:18.541Z,34.60
2023-01-17T23:17:09.118Z,27.10
2023-01-17T23:19:49.583Z,27.30
2023-01-17T23:22:22.555Z,28.50
2023-01-17T23:24:51.497Z,29.30
2023-01-17T23:27:44.343Z,26.60
2023-01-17T23:30:14.133Z,29.50
2023-01-17T23:32:47.012Z,35.00
2023-01-17T23:35:15.024Z,28.70
2023-01-17T23:38:01.975Z,30.30
2023-01-17T23:40:29.212Z,26.20
2023-01-17T23:43:14.877Z,29.70
2023-01-17T23:45:41.884Z,27.90
2023-01-17T23:48:11.812Z,27.10
2023-01-17T23:50:40.055Z,28.60
